createdAt,value
2018-05-12T01:00:05.963Z,0
2018-05-12T02:00:15.447Z,0
2018-05-12T02:01:14.261Z,0
2018-05-12T02:02:13.418Z,0
2018-05-12T02:03:13.709Z,0
2018-05-12T02:04:14.112Z,0
2018-05-12T02:05:14.827Z,0
2018-05-12T02:06:14.790Z,0
2018-05-12T02:07:14.666Z,0
2018-05-12T02:08:14.930Z,0
2018-05-12T02:09:14.598Z,0
2018-05-12T02:10:14.672Z,0
2018-05-12T02:11:14.852Z,0
2018-05-12T02:12:15.091Z,0
2018-05-12T02:13:15.237Z,0
2018-05-12T02:14:15.651Z,0
2018-05-12T02:15:16.028Z,0
2018-05-12T02:16:15.533Z,0
2018-05-12T02:17:15.947Z,0
2018-05-12T02:18:16.342Z,0
2018-05-12T02:19:16.243Z,0
2018-05-12T02:20:17.055Z,0
2018-05-12T02:21:16.819Z,0
2018-05-12T02:22:16.973Z,0
2018-05-12T02:23:17.382Z,0
2018-05-12T02:24:17.617Z,0
2018-05-12T02:25:16.847Z,0
2018-05-12T02:26:17.714Z,0
2018-05-12T02:27:17.464Z,0
2018-05-12T02:28:17.876Z,0
2018-05-12T02:29:17.911Z,0
2018-05-12T02:30:18.085Z,0
2018-05-12T02:31:17.967Z,0
2018-05-12T02:32:18.041Z,0
2018-05-12T02:33:18.570Z,0
2018-05-12T02:34:18.479Z,0
2018-05-12T02:35:18.287Z,0
2018-05-12T02:36:18.411Z,0
2018-05-12T02:37:18.527Z,0
2018-05-12T02:38:19.182Z,0
2018-05-12T02:39:19.257Z,0
2018-05-12T02:40:18.994Z,0
2018-05-12T02:41:19.684Z,0
2018-05-12T02:42:19.410Z,0
2018-05-12T02:43:19.552Z,0
2018-05-12T02:44:20.236Z,0
2018-05-12T02:45:20.241Z,0
2018-05-12T02:46:20.397Z,0
2018-05-12T02:47:20.301Z,0
2018-05-12T02:48:19.872Z,0
2018-05-12T02:49:19.995Z,0
2018-05-12T02:50:19.976Z,0
2018-05-12T02:51:20.448Z,0
2018-05-12T02:52:20.553Z,0
2018-05-12T02:53:20.752Z,0
2018-05-12T02:54:20.899Z,0
2018-05-12T02:55:21.873Z,0
2018-05-12T02:56:21.128Z,0
2018-05-12T02:57:21.759Z,0
2018-05-12T02:58:21.471Z,0
2018-05-12T02:59:22.882Z,0
2018-05-12T03:00:32.754Z,0
2018-05-12T03:01:32.479Z,0
2018-05-12T03:02:32.670Z,0
2018-05-12T03:03:33.129Z,0
2018-05-12T03:04:33.388Z,0
2018-05-12T03:05:33.791Z,0
2018-05-12T03:06:34.271Z,0
2018-05-12T03:07:34.287Z,0
2018-05-12T03:08:34.326Z,0
2018-05-12T03:09:34.697Z,0
2018-05-12T03:10:34.690Z,0
2018-05-12T03:11:34.529Z,0
2018-05-12T03:12:34.296Z,0
2018-05-12T03:13:34.866Z,0
2018-05-12T03:14:34.792Z,0
2018-05-12T03:15:34.897Z,5
2018-05-12T03:16:34.783Z,5
2018-05-12T03:17:35.368Z,5
2018-05-12T03:18:35.480Z,5
2018-05-12T03:19:35.844Z,5
2018-05-12T03:20:36.252Z,5
2018-05-12T03:21:36.251Z,5
2018-05-12T03:22:35.767Z,5
2018-05-12T03:23:37.531Z,5
2018-05-12T03:24:38.388Z,10
2018-05-12T03:25:37.530Z,10
2018-05-12T03:26:37.399Z,10
2018-05-12T03:27:36.417Z,10
2018-05-12T03:28:36.354Z,10
2018-05-12T03:29:36.451Z,10
2018-05-12T03:30:36.679Z,10
2018-05-12T03:31:37.728Z,15
2018-05-12T03:32:37.008Z,15
2018-05-12T03:33:37.847Z,15
2018-05-12T03:34:37.547Z,15
2018-05-12T03:35:37.995Z,15
2018-05-12T03:36:38.672Z,20
2018-05-12T03:37:38.190Z,20
2018-05-12T03:38:38.014Z,20
2018-05-12T03:39:37.931Z,20
2018-05-12T03:40:38.120Z,20
2018-05-12T03:41:38.554Z,25
2018-05-12T03:42:38.643Z,25
2018-05-12T03:43:38.387Z,25
2018-05-12T03:44:38.559Z,25
2018-05-12T03:45:38.776Z,25
2018-05-12T03:46:38.825Z,30
2018-05-12T03:47:38.768Z,30
2018-05-12T03:48:38.479Z,30
2018-05-12T03:49:39.552Z,30
2018-05-12T03:50:38.717Z,35
2018-05-12T03:51:40.424Z,35
2018-05-12T03:52:39.536Z,35
2018-05-12T03:53:41.460Z,35
2018-05-12T03:54:39.681Z,40
2018-05-12T03:55:39.561Z,40
2018-05-12T03:56:39.480Z,40
2018-05-12T03:57:40.037Z,45
2018-05-12T03:58:40.171Z,45
2018-05-12T03:59:41.093Z,45
2018-05-12T04:00:40.480Z,50
2018-05-12T04:01:40.871Z,50
2018-05-12T04:02:41.390Z,50
2018-05-12T04:03:40.680Z,55
2018-05-12T04:04:41.577Z,55
2018-05-12T04:05:43.192Z,55
2018-05-12T04:06:41.561Z,60
2018-05-12T04:07:41.758Z,60
2018-05-12T04:08:42.115Z,60
2018-05-12T04:09:41.142Z,65
2018-05-12T04:10:41.851Z,65
2018-05-12T04:11:42.477Z,65
2018-05-12T04:12:42.477Z,70
2018-05-12T04:13:41.988Z,70
2018-05-12T04:14:41.452Z,70
2018-05-12T04:15:42.650Z,70
2018-05-12T04:16:42.433Z,75
2018-05-12T04:17:41.992Z,75
2018-05-12T04:18:41.943Z,75
2018-05-12T04:19:42.191Z,80
2018-05-12T04:20:42.645Z,80
2018-05-12T04:21:42.708Z,85
2018-05-12T04:22:42.508Z,85
2018-05-12T04:23:42.697Z,85
2018-05-12T04:24:42.235Z,85
2018-05-12T04:25:43.054Z,85
2018-05-12T04:26:43.010Z,90
2018-05-12T04:27:43.085Z,90
2018-05-12T04:28:42.877Z,95
2018-05-12T04:29:42.914Z,95
2018-05-12T04:30:43.298Z,100
2018-05-12T04:31:42.624Z,100
2018-05-12T04:32:43.414Z,100
2018-05-12T04:33:43.184Z,105
2018-05-12T04:34:43.303Z,105
2018-05-12T04:35:43.238Z,105
2018-05-12T04:36:42.976Z,110
2018-05-12T04:37:43.492Z,110
2018-05-12T04:38:43.694Z,115
2018-05-12T04:39:44.141Z,115
2018-05-12T04:40:44.056Z,120
2018-05-12T04:41:43.779Z,125
2018-05-12T04:42:44.098Z,125
2018-05-12T04:43:44.096Z,130
2018-05-12T04:44:44.055Z,135
2018-05-12T04:45:44.287Z,135
2018-05-12T04:46:43.875Z,140
2018-05-12T04:47:44.174Z,140
2018-05-12T04:48:43.829Z,140
2018-05-12T04:49:43.928Z,140
2018-05-12T04:50:44.676Z,145
2018-05-12T04:51:44.527Z,150
2018-05-12T04:52:44.466Z,150
2018-05-12T04:53:44.954Z,155
2018-05-12T04:54:44.201Z,160
2018-05-12T04:55:44.750Z,160
2018-05-12T04:56:44.530Z,165
2018-05-12T04:57:44.747Z,165
2018-05-12T04:58:45.023Z,165
2018-05-12T04:59:45.577Z,165
2018-05-12T05:00:45.449Z,170
2018-05-12T05:01:45.259Z,170
2018-05-12T05:02:45.736Z,175
2018-05-12T05:03:45.574Z,180
2018-05-12T05:04:45.684Z,180
2018-05-12T05:05:45.818Z,180
2018-05-12T05:06:45.766Z,185
2018-05-12T05:07:45.912Z,190
2018-05-12T05:08:45.623Z,195
2018-05-12T05:09:45.595Z,200
2018-05-12T05:10:46.024Z,210
2018-05-12T05:11:46.407Z,215
2018-05-12T05:12:46.194Z,220
2018-05-12T05:13:46.637Z,230
2018-05-12T05:14:47.422Z,240
2018-05-12T05:15:47.444Z,245
2018-05-12T05:16:47.378Z,255
2018-05-12T05:17:48.421Z,265
2018-05-12T05:18:47.217Z,275
2018-05-12T05:19:47.923Z,290
2018-05-12T05:20:47.650Z,290
2018-05-12T05:21:47.525Z,290
2018-05-12T05:22:47.876Z,280
2018-05-12T05:23:48.208Z,270
2018-05-12T05:24:48.107Z,265
2018-05-12T05:25:49.263Z,275
2018-05-12T05:26:48.271Z,285
2018-05-12T05:27:50.150Z,285
2018-05-12T05:28:50.576Z,295
2018-05-12T05:29:51.116Z,315
2018-05-12T05:30:48.736Z,310
2018-05-12T05:31:50.515Z,295
2018-05-12T05:32:50.831Z,295
2018-05-12T05:33:50.632Z,295
2018-05-12T05:34:50.865Z,290
2018-05-12T05:35:51.103Z,295
2018-05-12T05:36:49.550Z,300
2018-05-12T05:37:49.656Z,305
2018-05-12T05:38:49.391Z,310
2018-05-12T05:39:49.849Z,320
2018-05-12T05:40:49.611Z,325
2018-05-12T05:41:50.208Z,325
2018-05-12T05:42:49.857Z,330
2018-05-12T05:43:49.812Z,335
2018-05-12T05:44:50.211Z,350
2018-05-12T05:45:50.886Z,365
2018-05-12T05:46:50.907Z,385
2018-05-12T05:47:51.061Z,390
2018-05-12T05:48:51.213Z,380
2018-05-12T05:49:51.521Z,345
2018-05-12T05:50:52.358Z,310
2018-05-12T05:51:52.062Z,265
2018-05-12T05:52:51.749Z,230
2018-05-12T05:53:52.164Z,225
2018-05-12T05:54:52.371Z,220
2018-05-12T05:55:52.575Z,215
2018-05-12T05:56:52.965Z,210
2018-05-12T05:57:53.108Z,210
2018-05-12T05:58:53.510Z,205
2018-05-12T05:59:53.909Z,205
2018-05-12T06:00:54.460Z,200
2018-05-12T06:01:54.711Z,195
2018-05-12T06:02:54.054Z,195
2018-05-12T06:03:54.636Z,195
2018-05-12T06:04:54.328Z,185
2018-05-12T06:05:54.671Z,185
2018-05-12T06:06:55.278Z,185
2018-05-12T06:07:55.701Z,185
2018-05-12T06:08:55.348Z,190
2018-05-12T06:09:54.817Z,195
2018-05-12T06:10:54.806Z,205
2018-05-12T06:11:56.954Z,220
2018-05-12T06:12:55.458Z,230
2018-05-12T06:13:55.679Z,240
2018-05-12T06:14:55.548Z,240
2018-05-12T06:15:56.313Z,240
2018-05-12T06:16:56.076Z,240
2018-05-12T06:17:56.333Z,240
2018-05-12T06:18:56.190Z,245
2018-05-12T06:19:56.404Z,240
2018-05-12T06:20:56.860Z,240
2018-05-12T06:21:56.357Z,240
2018-05-12T06:22:56.930Z,240
2018-05-12T06:23:57.138Z,255
2018-05-12T06:24:57.075Z,245
2018-05-12T06:25:56.841Z,240
2018-05-12T06:26:56.843Z,245
2018-05-12T06:27:57.365Z,250
2018-05-12T06:28:57.264Z,265
2018-05-12T06:29:57.051Z,280
2018-05-12T06:30:56.944Z,280
2018-05-12T06:31:57.220Z,290
2018-05-12T06:32:57.680Z,285
2018-05-12T06:33:57.470Z,280
2018-05-12T06:34:57.502Z,270
2018-05-12T06:35:57.840Z,255
2018-05-12T06:36:57.849Z,265
2018-05-12T06:37:57.607Z,275
2018-05-12T06:38:58.061Z,295
2018-05-12T06:39:58.107Z,315
2018-05-12T06:40:58.220Z,305
2018-05-12T06:41:58.165Z,290
2018-05-12T06:42:57.638Z,295
2018-05-12T06:43:57.987Z,275
2018-05-12T06:44:58.306Z,275
2018-05-12T06:45:58.044Z,285
2018-05-12T06:46:58.382Z,275
2018-05-12T06:47:58.099Z,275
2018-05-12T06:48:58.610Z,290
2018-05-12T06:49:58.349Z,285
2018-05-12T06:50:58.608Z,270
2018-05-12T06:51:58.322Z,235
2018-05-12T06:52:58.696Z,250
2018-05-12T06:53:58.896Z,270
2018-05-12T06:54:59.167Z,285
2018-05-12T06:55:59.424Z,300
2018-05-12T06:56:59.856Z,305
2018-05-12T06:57:59.505Z,310
2018-05-12T06:58:59.933Z,315
2018-05-12T07:00:00.442Z,390
2018-05-12T07:00:59.603Z,380
2018-05-12T07:02:01.737Z,385
2018-05-12T07:03:01.285Z,385
2018-05-12T07:03:59.789Z,390
2018-05-12T07:05:00.310Z,375
2018-05-12T07:06:00.676Z,400
2018-05-12T07:06:59.326Z,440
2018-05-12T07:08:00.379Z,770
2018-05-12T07:09:00.959Z,545
2018-05-12T07:10:00.334Z,570
2018-05-12T07:11:00.093Z,610
2018-05-12T07:11:59.917Z,635
2018-05-12T07:13:00.712Z,660
2018-05-12T07:14:00.440Z,830
2018-05-12T07:15:00.641Z,885
2018-05-12T07:16:00.935Z,690
2018-05-12T07:17:01.594Z,685
2018-05-12T07:18:01.215Z,630
2018-05-12T07:19:01.512Z,605
2018-05-12T07:20:01.510Z,585
2018-05-12T07:21:01.541Z,535
2018-05-12T07:22:01.310Z,515
2018-05-12T07:23:01.716Z,495
2018-05-12T07:24:02.596Z,455
2018-05-12T07:25:01.790Z,435
2018-05-12T07:26:01.446Z,430
2018-05-12T07:27:01.712Z,410
2018-05-12T07:28:02.043Z,400
2018-05-12T07:29:02.269Z,405
2018-05-12T07:30:02.560Z,425
2018-05-12T07:31:02.869Z,425
2018-05-12T07:32:03.414Z,435
2018-05-12T07:33:03.153Z,450
2018-05-12T07:34:03.204Z,520
2018-05-12T07:35:03.603Z,655
2018-05-12T07:36:03.410Z,1470
2018-05-12T07:37:02.718Z,1105
2018-05-12T07:38:03.320Z,1030
2018-05-12T07:39:04.098Z,850
2018-05-12T07:40:03.891Z,1005
2018-05-12T07:41:04.288Z,830
2018-05-12T07:42:03.715Z,925
2018-05-12T07:43:03.935Z,975
2018-05-12T07:44:03.970Z,1050
2018-05-12T07:45:04.517Z,1160
2018-05-12T07:46:04.939Z,1345
2018-05-12T07:47:04.538Z,1665
2018-05-12T07:48:05.055Z,1260
2018-05-12T07:49:05.148Z,920
2018-05-12T07:50:05.686Z,805
2018-05-12T07:51:05.643Z,725
2018-05-12T07:52:05.476Z,890
2018-05-12T07:53:05.867Z,1630
2018-05-12T07:54:06.590Z,1280
2018-05-12T07:55:06.495Z,850
2018-05-12T07:56:06.097Z,970
2018-05-12T07:57:06.076Z,880
2018-05-12T07:58:05.489Z,905
2018-05-12T07:59:06.447Z,740
2018-05-12T08:00:13.681Z,670
2018-05-12T08:01:05.452Z,625
2018-05-12T08:02:05.853Z,585
2018-05-12T08:03:06.293Z,550
2018-05-12T08:04:06.775Z,990
2018-05-12T08:05:06.460Z,2065
2018-05-12T08:06:07.407Z,2020
2018-05-12T08:07:07.242Z,1190
2018-05-12T08:08:07.119Z,2295
2018-05-12T08:09:06.524Z,2350
2018-05-12T08:10:07.542Z,1105
2018-05-12T08:11:07.730Z,1990
2018-05-12T08:12:07.357Z,1910
2018-05-12T08:13:07.957Z,2245
2018-05-12T08:14:08.777Z,2100
2018-05-12T08:15:07.758Z,2170
2018-05-12T08:16:07.474Z,990
2018-05-12T08:17:09.018Z,785
2018-05-12T08:18:07.978Z,1405
2018-05-12T08:19:07.615Z,2220
2018-05-12T08:20:08.287Z,2505
2018-05-12T08:21:08.188Z,780
2018-05-12T08:22:08.480Z,855
2018-05-12T08:23:09.135Z,1800
2018-05-12T08:24:08.529Z,2405
2018-05-12T08:25:08.416Z,970
2018-05-12T08:26:08.548Z,815
2018-05-12T08:27:09.002Z,2025
2018-05-12T08:28:09.625Z,1495
2018-05-12T08:29:08.651Z,695
2018-05-12T08:30:09.403Z,645
2018-05-12T08:31:10.473Z,895
2018-05-12T08:32:09.309Z,2240
2018-05-12T08:33:09.576Z,2330
2018-05-12T08:34:10.348Z,2090
2018-05-12T08:35:10.161Z,2250
2018-05-12T08:36:10.479Z,2230
2018-05-12T08:37:10.487Z,1480
2018-05-12T08:38:09.780Z,1035
2018-05-12T08:39:11.104Z,1670
2018-05-12T08:40:10.596Z,1155
2018-05-12T08:41:10.495Z,710
2018-05-12T08:42:10.906Z,830
2018-05-12T08:43:10.673Z,665
2018-05-12T08:44:11.554Z,665
2018-05-12T08:45:11.985Z,695
2018-05-12T08:46:11.501Z,1240
2018-05-12T08:47:10.464Z,700
2018-05-12T08:48:11.020Z,585
2018-05-12T08:49:11.319Z,620
2018-05-12T08:50:10.578Z,790
2018-05-12T08:51:10.986Z,1040
2018-05-12T08:52:10.984Z,2260
2018-05-12T08:53:11.190Z,2380
2018-05-12T08:54:11.523Z,2675
2018-05-12T08:55:12.410Z,2810
2018-05-12T08:56:11.871Z,1850
2018-05-12T08:57:12.069Z,2190
2018-05-12T08:58:11.549Z,2550
2018-05-12T08:59:12.208Z,2630
2018-05-12T09:00:17.487Z,2640
2018-05-12T09:01:12.010Z,830
2018-05-12T09:02:12.746Z,680
2018-05-12T09:03:12.949Z,650
2018-05-12T09:04:13.762Z,630
2018-05-12T09:05:13.487Z,640
2018-05-12T09:06:14.391Z,830
2018-05-12T09:07:15.575Z,995
2018-05-12T09:08:15.026Z,1115
2018-05-12T09:09:14.875Z,2940
2018-05-12T09:10:15.372Z,765
2018-05-12T09:11:15.756Z,585
2018-05-12T09:12:16.389Z,625
2018-05-12T09:13:15.209Z,865
2018-05-12T09:14:16.417Z,955
2018-05-12T09:15:17.029Z,780
2018-05-12T09:16:15.176Z,590
2018-05-12T09:17:16.202Z,550
2018-05-12T09:18:15.492Z,610
2018-05-12T09:19:15.209Z,1115
2018-05-12T09:20:15.738Z,1755
2018-05-12T09:21:15.720Z,2695
2018-05-12T09:22:16.291Z,2725
2018-05-12T09:23:15.846Z,2395
2018-05-12T09:24:16.193Z,2280
2018-05-12T09:25:15.780Z,2235
2018-05-12T09:26:16.109Z,2535
2018-05-12T09:27:16.066Z,1690
2018-05-12T09:28:15.680Z,845
2018-05-12T09:29:15.881Z,695
2018-05-12T09:30:16.008Z,715
2018-05-12T09:31:17.010Z,790
2018-05-12T09:32:17.307Z,1860
2018-05-12T09:33:17.602Z,1975
2018-05-12T09:34:17.750Z,2480
2018-05-12T09:35:16.961Z,2295
2018-05-12T09:36:17.536Z,2615
2018-05-12T09:37:17.776Z,2755
2018-05-12T09:38:17.889Z,660
2018-05-12T09:39:17.641Z,495
2018-05-12T09:40:17.525Z,445
2018-05-12T09:41:17.805Z,460
2018-05-12T09:42:18.028Z,465
2018-05-12T09:43:17.613Z,495
2018-05-12T09:44:17.938Z,565
2018-05-12T09:45:18.178Z,710
2018-05-12T09:46:17.072Z,1215
2018-05-12T09:47:17.552Z,2345
2018-05-12T09:48:16.900Z,2385
2018-05-12T09:49:17.683Z,2185
2018-05-12T09:50:17.984Z,2735
2018-05-12T09:51:17.195Z,1115
2018-05-12T09:52:17.525Z,2860
2018-05-12T09:53:17.528Z,2560
2018-05-12T09:54:17.474Z,1980
2018-05-12T09:55:17.898Z,1575
2018-05-12T09:56:17.764Z,1605
2018-05-12T09:57:18.223Z,1600
2018-05-12T09:58:18.956Z,1580
2018-05-12T09:59:19.435Z,1555
2018-05-12T10:00:22.633Z,1435
2018-05-12T10:01:19.206Z,1310
2018-05-12T10:02:19.879Z,1860
2018-05-12T10:03:19.981Z,2195
2018-05-12T10:04:20.735Z,2100
2018-05-12T10:05:19.876Z,1175
2018-05-12T10:06:20.458Z,2090
2018-05-12T10:07:21.195Z,1785
2018-05-12T10:08:21.182Z,635
2018-05-12T10:09:21.288Z,675
2018-05-12T10:10:21.046Z,770
2018-05-12T10:11:20.723Z,735
2018-05-12T10:12:22.195Z,795
2018-05-12T10:13:22.285Z,650
2018-05-12T10:14:22.216Z,625
2018-05-12T10:15:23.304Z,1085
2018-05-12T10:16:22.747Z,1030
2018-05-12T10:17:22.836Z,2200
2018-05-12T10:18:22.476Z,1500
2018-05-12T10:19:22.413Z,915
2018-05-12T10:20:22.776Z,1620
2018-05-12T10:21:23.956Z,2840
2018-05-12T10:22:23.200Z,2845
2018-05-12T10:23:22.784Z,2970
2018-05-12T10:24:23.210Z,2930
2018-05-12T10:25:23.657Z,2755
2018-05-12T10:26:23.990Z,670
2018-05-12T10:27:23.181Z,705
2018-05-12T10:28:24.244Z,1355
2018-05-12T10:29:24.660Z,1345
2018-05-12T10:30:24.110Z,825
2018-05-12T10:31:23.834Z,2490
2018-05-12T10:32:23.907Z,2585
2018-05-12T10:33:23.763Z,990
2018-05-12T10:34:23.409Z,2480
2018-05-12T10:35:24.062Z,810
2018-05-12T10:36:24.291Z,635
2018-05-12T10:37:23.999Z,545
2018-05-12T10:38:24.785Z,540
2018-05-12T10:39:24.680Z,580
2018-05-12T10:40:24.492Z,655
2018-05-12T10:41:24.708Z,570
2018-05-12T10:42:25.095Z,575
2018-05-12T10:43:25.236Z,520
2018-05-12T10:44:24.871Z,510
2018-05-12T10:45:25.143Z,485
2018-05-12T10:46:26.050Z,480
2018-05-12T10:47:25.574Z,480
2018-05-12T10:48:26.109Z,500
2018-05-12T10:49:26.003Z,515
2018-05-12T10:50:26.731Z,565
2018-05-12T10:51:27.089Z,585
2018-05-12T10:52:26.663Z,610
2018-05-12T10:53:27.064Z,595
2018-05-12T10:54:26.856Z,610
2018-05-12T10:55:27.271Z,585
2018-05-12T10:56:27.749Z,540
2018-05-12T10:57:27.706Z,480
2018-05-12T10:58:27.639Z,455
2018-05-12T10:59:28.057Z,405
2018-05-12T11:00:37.647Z,385
2018-05-12T11:01:34.766Z,405
2018-05-12T11:02:31.672Z,425
2018-05-12T11:03:32.341Z,470
2018-05-12T11:04:32.108Z,550
2018-05-12T11:05:32.789Z,620
2018-05-12T11:06:32.837Z,675
2018-05-12T11:07:32.336Z,720
2018-05-12T11:08:32.777Z,715
2018-05-12T11:09:32.995Z,715
2018-05-12T11:10:33.240Z,705
2018-05-12T11:11:33.370Z,655
2018-05-12T11:12:34.051Z,625
2018-05-12T11:13:33.661Z,550
2018-05-12T11:14:34.060Z,525
2018-05-12T11:15:34.193Z,570
2018-05-12T11:16:34.562Z,560
2018-05-12T11:17:34.443Z,610
2018-05-12T11:18:34.928Z,645
2018-05-12T11:19:35.308Z,680
2018-05-12T11:20:35.397Z,675
2018-05-12T11:21:36.489Z,625
2018-05-12T11:22:35.680Z,630
2018-05-12T11:23:36.090Z,630
2018-05-12T11:24:36.744Z,635
2018-05-12T11:25:36.765Z,635
2018-05-12T11:26:37.324Z,650
2018-05-12T11:27:36.127Z,650
2018-05-12T11:28:37.242Z,655
2018-05-12T11:29:36.520Z,685
2018-05-12T11:30:36.934Z,690
2018-05-12T11:31:37.356Z,650
2018-05-12T11:32:38.096Z,615
2018-05-12T11:33:37.970Z,535
2018-05-12T11:34:38.254Z,535
2018-05-12T11:35:38.634Z,575
2018-05-12T11:36:39.061Z,600
2018-05-12T11:37:39.777Z,575
2018-05-12T11:38:39.818Z,535
2018-05-12T11:39:39.348Z,510
2018-05-12T11:40:39.579Z,490
2018-05-12T11:41:39.749Z,500
2018-05-12T11:42:39.865Z,520
2018-05-12T11:43:40.528Z,540
2018-05-12T11:44:41.343Z,540
2018-05-12T11:45:40.079Z,545
2018-05-12T11:46:40.225Z,525
2018-05-12T11:47:40.362Z,530
2018-05-12T11:48:40.861Z,515
2018-05-12T11:49:41.072Z,515
2018-05-12T11:50:41.334Z,520
2018-05-12T11:51:41.270Z,520
2018-05-12T11:52:41.228Z,525
2018-05-12T11:53:40.932Z,525
2018-05-12T11:54:42.193Z,455
2018-05-12T11:55:40.873Z,420
2018-05-12T11:56:41.170Z,440
2018-05-12T11:57:41.324Z,470
2018-05-12T11:58:41.981Z,490
2018-05-12T11:59:42.066Z,495
2018-05-12T12:00:41.773Z,450
2018-05-12T12:01:41.672Z,425
2018-05-12T12:02:42.745Z,435
2018-05-12T12:03:42.459Z,425
2018-05-12T12:04:42.094Z,400
2018-05-12T12:05:42.235Z,390
2018-05-12T12:06:42.605Z,365
2018-05-12T12:07:43.073Z,345
2018-05-12T12:08:43.741Z,340
2018-05-12T12:09:43.545Z,360
2018-05-12T12:10:43.983Z,355
2018-05-12T12:11:43.438Z,390
2018-05-12T12:12:43.819Z,380
2018-05-12T12:13:43.736Z,415
2018-05-12T12:14:44.162Z,450
2018-05-12T12:15:44.275Z,465
2018-05-12T12:16:45.375Z,455
2018-05-12T12:17:44.896Z,455
2018-05-12T12:18:44.476Z,445
2018-05-12T12:19:44.728Z,395
2018-05-12T12:20:45.261Z,405
2018-05-12T12:21:44.909Z,400
2018-05-12T12:22:45.582Z,395
2018-05-12T12:23:45.091Z,395
2018-05-12T12:24:45.425Z,360
2018-05-12T12:25:45.849Z,335
2018-05-12T12:26:46.507Z,310
2018-05-12T12:27:46.570Z,320
2018-05-12T12:28:46.599Z,320
2018-05-12T12:29:46.797Z,295
2018-05-12T12:30:48.282Z,280
2018-05-12T12:31:46.863Z,295
2018-05-12T12:32:46.534Z,320
2018-05-12T12:33:47.361Z,325
2018-05-12T12:34:47.948Z,320
2018-05-12T12:35:47.279Z,315
2018-05-12T12:36:46.803Z,285
2018-05-12T12:37:47.966Z,250
2018-05-12T12:38:47.695Z,205
2018-05-12T12:39:47.941Z,200
2018-05-12T12:40:47.500Z,205
2018-05-12T12:41:48.142Z,210
2018-05-12T12:42:49.100Z,215
2018-05-12T12:43:48.639Z,215
2018-05-12T12:44:48.437Z,215
2018-05-12T12:45:48.927Z,215
2018-05-12T12:46:49.141Z,220
2018-05-12T12:47:48.146Z,220
2018-05-12T12:48:48.706Z,220
2018-05-12T12:49:49.604Z,215
2018-05-12T12:50:49.856Z,215
2018-05-12T12:51:49.693Z,215
2018-05-12T12:52:49.925Z,210
2018-05-12T12:53:49.143Z,210
2018-05-12T12:54:49.355Z,210
2018-05-12T12:55:48.693Z,205
2018-05-12T12:56:49.112Z,200
2018-05-12T12:57:49.266Z,195
2018-05-12T12:58:49.202Z,195
2018-05-12T12:59:50.080Z,195
2018-05-12T13:00:49.791Z,190
2018-05-12T13:01:51.490Z,190
2018-05-12T13:02:50.403Z,185
2018-05-12T13:03:50.318Z,185
2018-05-12T13:04:50.283Z,195
2018-05-12T13:05:50.473Z,200
2018-05-12T13:06:50.324Z,210
2018-05-12T13:07:50.277Z,225
2018-05-12T13:08:50.488Z,240
2018-05-12T13:09:51.220Z,245
2018-05-12T13:10:51.088Z,255
2018-05-12T13:11:51.505Z,245
2018-05-12T13:12:51.738Z,250
2018-05-12T13:13:52.210Z,250
2018-05-12T13:14:51.482Z,225
2018-05-12T13:15:51.543Z,190
2018-05-12T13:16:51.729Z,175
2018-05-12T13:17:51.839Z,175
2018-05-12T13:18:52.554Z,170
2018-05-12T13:19:51.725Z,170
2018-05-12T13:20:52.368Z,170
2018-05-12T13:21:51.592Z,175
2018-05-12T13:22:52.028Z,170
2018-05-12T13:23:52.598Z,170
2018-05-12T13:24:53.049Z,165
2018-05-12T13:25:53.459Z,165
2018-05-12T13:26:54.183Z,165
2018-05-12T13:27:55.167Z,160
2018-05-12T13:28:54.686Z,160
2018-05-12T13:29:54.803Z,155
2018-05-12T13:30:55.231Z,155
2018-05-12T13:31:55.515Z,155
2018-05-12T13:32:55.943Z,155
2018-05-12T13:33:55.955Z,155
2018-05-12T13:34:55.471Z,150
2018-05-12T13:35:55.254Z,150
2018-05-12T13:36:55.803Z,150
2018-05-12T13:37:56.255Z,145
2018-05-12T13:38:56.452Z,145
2018-05-12T13:39:56.676Z,145
2018-05-12T13:40:57.455Z,145
2018-05-12T13:41:57.162Z,145
2018-05-12T13:42:56.957Z,145
2018-05-12T13:43:56.801Z,145
2018-05-12T13:44:57.344Z,145
2018-05-12T13:45:57.505Z,145
2018-05-12T13:46:57.949Z,145
2018-05-12T13:47:58.104Z,150
2018-05-12T13:48:58.679Z,155
2018-05-12T13:49:58.618Z,155
2018-05-12T13:50:58.200Z,155
2018-05-12T13:51:57.971Z,150
2018-05-12T13:52:58.514Z,145
2018-05-12T13:53:58.905Z,145
2018-05-12T13:54:58.965Z,145
2018-05-12T13:55:59.031Z,140
2018-05-12T13:56:59.551Z,145
2018-05-12T13:58:00.289Z,135
2018-05-12T13:58:59.830Z,135
2018-05-12T14:00:00.075Z,135
2018-05-12T14:01:00.173Z,135
2018-05-12T14:02:01.070Z,135
2018-05-12T14:03:00.432Z,135
2018-05-12T14:04:00.631Z,135
2018-05-12T14:05:00.886Z,130
2018-05-12T14:06:01.888Z,130
2018-05-12T14:07:01.476Z,130
2018-05-12T14:08:01.638Z,130
2018-05-12T14:09:01.416Z,130
2018-05-12T14:10:01.899Z,130
2018-05-12T14:11:01.954Z,130
2018-05-12T14:12:02.113Z,130
2018-05-12T14:13:03.113Z,130
2018-05-12T14:14:02.277Z,130
2018-05-12T14:15:03.164Z,130
2018-05-12T14:16:03.175Z,130
2018-05-12T14:17:02.573Z,130
2018-05-12T14:18:03.277Z,130
2018-05-12T14:19:03.571Z,125
2018-05-12T14:20:03.123Z,125
2018-05-12T14:21:03.921Z,125
2018-05-12T14:22:03.614Z,125
2018-05-12T14:23:04.008Z,125
2018-05-12T14:24:03.815Z,125
2018-05-12T14:25:04.044Z,125
2018-05-12T14:26:04.382Z,125
2018-05-12T14:27:04.147Z,125
2018-05-12T14:28:04.475Z,120
2018-05-12T14:29:04.459Z,120
2018-05-12T14:30:04.592Z,120
2018-05-12T14:31:04.716Z,120
2018-05-12T14:32:05.188Z,120
2018-05-12T14:33:05.529Z,120
2018-05-12T14:34:04.659Z,120
2018-05-12T14:35:05.264Z,120
2018-05-12T14:36:05.792Z,120
2018-05-12T14:37:05.532Z,120
2018-05-12T14:38:05.332Z,120
2018-05-12T14:39:05.826Z,120
2018-05-12T14:40:05.689Z,115
2018-05-12T14:41:05.874Z,115
2018-05-12T14:42:05.097Z,115
2018-05-12T14:43:06.142Z,115
2018-05-12T14:44:05.597Z,115
2018-05-12T14:45:05.890Z,115
2018-05-12T14:46:05.233Z,115
2018-05-12T14:47:06.339Z,110
2018-05-12T14:48:05.366Z,110
2018-05-12T14:49:05.724Z,110
2018-05-12T14:50:06.389Z,110
2018-05-12T14:51:06.118Z,115
2018-05-12T14:52:05.968Z,115
2018-05-12T14:53:06.370Z,115
2018-05-12T14:54:06.862Z,120
2018-05-12T14:55:06.847Z,110
2018-05-12T14:56:07.030Z,110
2018-05-12T14:57:07.429Z,110
2018-05-12T14:58:07.859Z,110
2018-05-12T14:59:08.040Z,110
2018-05-12T16:00:15.985Z,90
2018-05-12T16:01:00.794Z,90
2018-05-12T16:02:00.815Z,90
2018-05-12T16:03:01.798Z,90
2018-05-12T16:04:01.614Z,90
2018-05-12T16:05:01.618Z,85
2018-05-12T16:06:01.449Z,85
2018-05-12T16:07:01.473Z,85
2018-05-12T16:08:01.781Z,85
2018-05-12T16:09:01.864Z,85
2018-05-12T16:10:01.809Z,85
2018-05-12T16:11:02.120Z,85
2018-05-12T16:12:02.435Z,85
2018-05-12T16:13:02.950Z,85
2018-05-12T16:14:03.187Z,85
2018-05-12T16:15:02.774Z,85
2018-05-12T16:16:02.760Z,85
2018-05-12T16:17:03.374Z,85
2018-05-12T16:18:03.278Z,85
2018-05-12T16:19:03.782Z,85
2018-05-12T16:20:03.540Z,85
2018-05-12T16:21:04.327Z,85
2018-05-12T16:22:03.929Z,85
2018-05-12T16:23:03.988Z,85
2018-05-12T16:24:04.016Z,85
2018-05-12T16:25:04.411Z,85
2018-05-12T16:26:04.983Z,85
2018-05-12T16:27:04.728Z,85
2018-05-12T16:28:04.685Z,80
2018-05-12T16:29:05.266Z,85
2018-05-12T16:30:05.033Z,85
2018-05-12T16:31:05.826Z,85
2018-05-12T16:32:05.826Z,80
2018-05-12T16:33:05.737Z,80
2018-05-12T16:34:05.966Z,80
2018-05-12T16:35:06.032Z,80
2018-05-12T16:36:07.277Z,80
2018-05-12T16:37:06.345Z,80
2018-05-12T16:38:06.889Z,80
2018-05-12T16:39:07.630Z,80
2018-05-12T16:40:07.678Z,80
2018-05-12T16:41:07.313Z,75
2018-05-12T16:42:07.648Z,75
2018-05-12T16:43:06.619Z,75
2018-05-12T16:44:06.927Z,75
2018-05-12T16:45:06.948Z,75
2018-05-12T16:46:07.761Z,75
2018-05-12T16:47:07.808Z,75
2018-05-12T16:48:07.669Z,75
2018-05-12T16:49:08.128Z,75
2018-05-12T16:50:07.774Z,75
2018-05-12T16:51:09.012Z,75
2018-05-12T16:52:08.349Z,75
2018-05-12T16:53:07.865Z,75